createdAt,value
2018-08-22T00:02:27.614Z,19.80
2018-08-22T00:04:55.568Z,19.70
2018-08-22T00:07:22.613Z,19.70
2018-08-22T00:09:49.598Z,19.60
2018-08-22T00:12:17.324Z,19.60
2018-08-22T00:14:44.372Z,19.70
2018-08-22T00:17:11.380Z,19.80
2018-08-22T00:19:38.383Z,19.80
2018-08-22T00:22:05.402Z,19.60
2018-08-22T00:24:33.270Z,19.40
2018-08-22T00:27:00.257Z,19.40
2018-08-22T00:29:27.284Z,19.30
2018-08-22T00:31:54.268Z,19.20
2018-08-22T00:34:21.357Z,19.10
2018-08-22T00:36:48.475Z,19.10
2018-08-22T00:39:15.473Z,19.10
2018-08-22T00:41:42.496Z,19.20
2018-08-22T00:44:09.543Z,19.10
2018-08-22T00:46:36.559Z,19.10
2018-08-22T00:51:30.688Z,19.20
2018-08-22T00:56:37.105Z,19.10
2018-08-22T00:59:04.100Z,19.20
2018-08-22T01:01:31.097Z,19.20
2018-08-22T01:03:58.163Z,19.10
2018-08-22T01:06:25.501Z,18.90
2018-08-22T01:08:52.481Z,18.90
2018-08-22T01:11:19.497Z,18.90
2018-08-22T01:13:46.483Z,18.90
2018-08-22T01:16:13.488Z,18.80
2018-08-22T01:18:40.527Z,18.90
2018-08-22T01:21:07.508Z,18.80
2018-08-22T01:23:34.515Z,18.80
2018-08-22T01:26:01.538Z,18.80
2018-08-22T01:28:29.094Z,18.80
2018-08-22T01:30:56.101Z,18.80
2018-08-22T01:33:23.145Z,18.70
2018-08-22T01:35:50.146Z,18.70
2018-08-22T01:38:17.158Z,18.70
2018-08-22T01:40:44.172Z,18.70
2018-08-22T01:43:11.155Z,18.70
2018-08-22T01:45:38.147Z,18.70
2018-08-22T01:48:05.190Z,18.70
2018-08-22T01:50:32.173Z,18.60
2018-08-22T01:52:59.179Z,18.50
2018-08-22T01:55:26.203Z,18.50
2018-08-22T01:57:53.193Z,18.60
2018-08-22T02:00:20.181Z,18.50
2018-08-22T02:02:47.208Z,18.70
2018-08-22T02:05:14.194Z,18.80
2018-08-22T02:07:41.176Z,18.90
2018-08-22T02:12:46.702Z,18.90
2018-08-22T02:17:40.836Z,18.80
2018-08-22T02:20:07.800Z,18.80
2018-08-22T02:22:34.836Z,18.80
2018-08-22T02:25:01.846Z,18.80
2018-08-22T02:27:28.813Z,18.80
2018-08-22T02:29:56.782Z,18.60
2018-08-22T02:32:23.789Z,18.50
2018-08-22T02:34:50.789Z,18.30
2018-08-22T02:37:17.829Z,18.30
2018-08-22T02:39:44.819Z,18.20
2018-08-22T02:42:12.641Z,18.20
2018-08-22T02:44:39.676Z,18.20
2018-08-22T02:47:06.668Z,18.20
2018-08-22T02:49:33.664Z,18.20
2018-08-22T02:52:00.702Z,18.10
2018-08-22T02:54:27.693Z,17.90
2018-08-22T02:56:54.680Z,18.00
2018-08-22T02:59:21.710Z,18.00
2018-08-22T03:01:48.696Z,18.10
2018-08-22T03:04:15.703Z,18.10
2018-08-22T03:06:42.742Z,18.10
2018-08-22T03:11:37.701Z,18.10
2018-08-22T03:14:04.717Z,18.00
2018-08-22T03:16:31.710Z,18.00
2018-08-22T03:18:58.725Z,18.10
2018-08-22T03:21:25.760Z,18.10
2018-08-22T03:23:52.760Z,18.20
2018-08-22T03:26:19.752Z,18.20
2018-08-22T03:28:46.779Z,18.20
2018-08-22T03:33:40.882Z,18.00
2018-08-22T03:36:07.919Z,18.00
2018-08-22T03:43:40.509Z,18.00
2018-08-22T03:46:07.503Z,18.10
2018-08-22T03:48:34.603Z,18.10
2018-08-22T03:51:01.650Z,18.10
2018-08-22T03:53:28.646Z,18.10
2018-08-22T03:55:55.649Z,18.00
2018-08-22T03:58:22.680Z,18.10
2018-08-22T04:03:16.775Z,18.20
2018-08-22T04:05:43.807Z,18.10
2018-08-22T04:08:10.800Z,18.20
2018-08-22T04:10:37.788Z,18.30
2018-08-22T04:13:04.809Z,18.30
2018-08-22T04:15:32.736Z,18.20
2018-08-22T04:20:26.875Z,18.00
2018-08-22T04:22:53.874Z,18.00
2018-08-22T04:27:47.973Z,18.10
2018-08-22T04:30:14.981Z,18.10
2018-08-22T04:32:41.985Z,18.20
2018-08-22T04:35:09.007Z,18.20
2018-08-22T04:37:35.987Z,18.30
2018-08-22T04:40:03.019Z,18.20
2018-08-22T04:42:30.905Z,18.30
2018-08-22T04:44:57.918Z,18.30
2018-08-22T04:50:06.722Z,18.30
2018-08-22T04:52:33.566Z,18.20
2018-08-22T04:55:00.555Z,18.20
2018-08-22T04:57:27.602Z,18.20
2018-08-22T04:59:54.595Z,18.30
2018-08-22T05:02:21.625Z,18.30
2018-08-22T05:04:49.095Z,18.20
2018-08-22T05:07:17.005Z,18.30
2018-08-22T05:09:43.991Z,18.30
2018-08-22T05:12:11.012Z,18.40
2018-08-22T05:14:37.997Z,18.50
2018-08-22T05:17:05.000Z,18.60
2018-08-22T05:19:32.041Z,18.70
2018-08-22T05:21:59.037Z,18.90
2018-08-22T05:24:26.029Z,19.00
2018-08-22T05:26:53.055Z,19.00
2018-08-22T05:29:20.048Z,19.00
2018-08-22T05:31:47.048Z,18.90
2018-08-22T05:34:14.076Z,19.00
2018-08-22T05:39:08.148Z,19.10
2018-08-22T05:41:35.166Z,19.20
2018-08-22T05:44:02.689Z,19.20
2018-08-22T05:46:29.899Z,19.20
2018-08-22T05:48:56.935Z,19.30
2018-08-22T05:51:23.928Z,19.30
2018-08-22T05:53:50.917Z,19.40
2018-08-22T05:56:17.932Z,19.40
2018-08-22T05:58:45.030Z,19.40
2018-08-22T06:01:12.090Z,19.20
2018-08-22T06:06:06.201Z,19.40
2018-08-22T06:11:12.592Z,19.70
2018-08-22T06:13:39.588Z,19.90
2018-08-22T06:16:06.567Z,19.80
2018-08-22T06:18:33.588Z,19.90
2018-08-22T06:21:00.574Z,20.10
2018-08-22T06:23:27.553Z,20.10
2018-08-22T06:25:54.593Z,19.90
2018-08-22T06:28:21.578Z,20.00
2018-08-22T06:30:48.568Z,20.00
2018-08-22T06:33:15.583Z,20.00
2018-08-22T06:35:42.570Z,20.00
2018-08-22T06:38:09.561Z,20.00
2018-08-22T06:40:36.590Z,20.00
2018-08-22T06:45:30.650Z,20.00
2018-08-22T06:47:57.677Z,20.10
2018-08-22T06:50:24.667Z,19.80
2018-08-22T06:52:51.656Z,19.70
2018-08-22T06:55:18.698Z,19.70
2018-08-22T06:57:46.628Z,19.70
2018-08-22T07:00:13.611Z,19.70
2018-08-22T07:02:41.610Z,19.50
2018-08-22T07:05:08.602Z,19.80
2018-08-22T07:07:35.577Z,19.70
2018-08-22T07:10:02.593Z,20.00
2018-08-22T07:12:29.842Z,20.10
2018-08-22T07:17:23.936Z,20.00
2018-08-22T07:19:50.932Z,19.70
2018-08-22T07:22:17.922Z,19.70
2018-08-22T07:24:44.953Z,19.70
2018-08-22T07:29:50.438Z,19.50
2018-08-22T07:32:17.426Z,19.90
2018-08-22T07:34:44.422Z,20.20
2018-08-22T07:37:11.472Z,20.30
2018-08-22T07:39:38.489Z,20.20
2018-08-22T07:42:05.494Z,20.30
2018-08-22T07:44:32.535Z,20.50
2018-08-22T07:46:59.566Z,20.40
2018-08-22T07:49:26.516Z,20.50
2018-08-22T07:51:53.540Z,20.70
2018-08-22T07:54:20.531Z,20.90
2018-08-22T07:56:47.535Z,21.00
2018-08-22T07:59:14.557Z,21.10
2018-08-22T08:04:08.643Z,20.80
2018-08-22T08:06:35.673Z,20.50
2018-08-22T08:09:02.657Z,20.70
2018-08-22T08:11:29.637Z,20.70
2018-08-22T08:13:56.694Z,20.90
2018-08-22T08:16:23.689Z,21.00
2018-08-22T08:18:50.699Z,20.60
2018-08-22T08:21:17.719Z,21.00
2018-08-22T08:23:44.698Z,21.00
2018-08-22T08:26:11.734Z,21.20
2018-08-22T08:28:38.730Z,21.40
2018-08-22T08:31:05.746Z,21.20
2018-08-22T08:33:32.731Z,21.70
2018-08-22T08:35:59.805Z,21.40
2018-08-22T08:40:53.791Z,21.60
2018-08-22T08:43:20.886Z,21.70
2018-08-22T08:50:54.620Z,22.20
2018-08-22T08:53:21.613Z,22.20
2018-08-22T08:55:48.651Z,22.30
2018-08-22T08:58:15.668Z,22.50
2018-08-22T09:03:09.746Z,22.70
2018-08-22T09:05:36.729Z,22.80
2018-08-22T09:08:03.732Z,22.90
2018-08-22T09:10:30.784Z,22.60
2018-08-22T09:12:57.778Z,22.90
2018-08-22T09:15:24.775Z,23.10
2018-08-22T09:17:51.798Z,23.50
2018-08-22T09:20:18.790Z,23.50
2018-08-22T09:22:45.781Z,23.70
2018-08-22T09:25:13.773Z,24.30
2018-08-22T09:27:40.756Z,24.20
2018-08-22T09:30:07.745Z,24.60
2018-08-22T09:32:35.584Z,24.30
2018-08-22T09:35:02.564Z,24.30
2018-08-22T09:39:56.695Z,24.60
2018-08-22T09:42:23.643Z,24.70
2018-08-22T09:44:50.638Z,25.10
2018-08-22T09:47:17.675Z,24.90
2018-08-22T09:49:44.641Z,24.90
2018-08-22T09:52:11.625Z,24.80
2018-08-22T09:57:17.142Z,25.30
2018-08-22T09:59:44.188Z,25.20
2018-08-22T10:02:11.147Z,24.80
2018-08-22T10:04:38.130Z,25.00
2018-08-22T10:07:05.177Z,25.60
2018-08-22T10:09:32.140Z,25.80
2018-08-22T10:11:59.134Z,25.90
2018-08-22T10:14:26.162Z,26.00
2018-08-22T10:16:53.150Z,26.00
2018-08-22T10:19:21.088Z,26.40
2018-08-22T10:21:48.113Z,26.60
2018-08-22T10:24:15.104Z,26.80
2018-08-22T10:26:42.167Z,27.00
2018-08-22T10:29:09.121Z,27.20
2018-08-22T10:31:36.110Z,27.50
2018-08-22T10:34:03.097Z,27.80
2018-08-22T10:36:30.967Z,27.40
2018-08-22T10:38:57.963Z,27.60
2018-08-22T10:41:24.978Z,27.60
2018-08-22T10:43:52.004Z,27.50
2018-08-22T10:46:18.988Z,27.90
2018-08-22T10:48:46.007Z,28.00
2018-08-22T10:51:12.989Z,27.90
2018-08-22T10:53:39.962Z,28.10
2018-08-22T10:56:07.784Z,27.90
2018-08-22T10:58:34.812Z,28.20
2018-08-22T11:01:01.803Z,28.20
2018-08-22T11:03:28.801Z,27.90
2018-08-22T11:05:55.810Z,27.90
2018-08-22T11:08:22.797Z,28.20
2018-08-22T11:15:55.467Z,29.40
2018-08-22T11:18:22.398Z,29.60
2018-08-22T11:20:48.891Z,29.80
2018-08-22T11:23:27.748Z,30.00
2018-08-22T11:26:06.616Z,29.70
2018-08-22T11:28:45.519Z,29.70
2018-08-22T11:31:24.267Z,29.70
2018-08-22T11:34:02.917Z,29.40
2018-08-22T11:36:29.413Z,29.40
2018-08-22T11:38:56.392Z,29.30
2018-08-22T11:41:23.418Z,29.30
2018-08-22T11:43:50.401Z,29.40
2018-08-22T11:46:17.390Z,29.90
2018-08-22T11:48:44.401Z,29.80
2018-08-22T11:51:11.401Z,29.90
2018-08-22T11:53:38.396Z,29.60
2018-08-22T11:56:05.467Z,29.80
2018-08-22T11:58:32.400Z,29.80
2018-08-22T12:00:59.389Z,29.80
2018-08-22T12:03:26.415Z,30.20
2018-08-22T12:08:20.511Z,30.40
2018-08-22T12:10:47.530Z,30.20
2018-08-22T12:13:14.524Z,30.20
2018-08-22T12:15:41.517Z,30.20
2018-08-22T12:18:09.443Z,30.30
2018-08-22T12:20:36.444Z,30.20
2018-08-22T12:23:03.498Z,30.00
2018-08-22T12:25:30.449Z,30.40
2018-08-22T12:30:24.530Z,31.00
2018-08-22T12:32:51.551Z,31.30
2018-08-22T12:37:58.013Z,30.70
2018-08-22T12:40:24.999Z,31.10
2018-08-22T12:45:19.105Z,31.50
2018-08-22T12:47:46.102Z,31.60
2018-08-22T12:50:13.149Z,31.20
2018-08-22T12:52:40.109Z,31.20
2018-08-22T12:55:07.098Z,30.70
2018-08-22T12:57:34.093Z,31.00
2018-08-22T13:00:01.151Z,30.80
2018-08-22T13:02:28.135Z,30.90
2018-08-22T13:04:55.130Z,31.00
2018-08-22T13:07:22.148Z,31.00
2018-08-22T13:09:49.144Z,30.80
2018-08-22T13:12:16.134Z,31.10
2018-08-22T13:14:43.149Z,31.20
2018-08-22T13:17:10.876Z,31.30
2018-08-22T13:19:37.862Z,31.50
2018-08-22T13:22:04.897Z,31.50
2018-08-22T13:24:31.913Z,31.10
2018-08-22T13:26:58.873Z,31.00
2018-08-22T13:29:25.883Z,30.50
2018-08-22T13:31:52.866Z,30.40
2018-08-22T13:34:19.858Z,30.20
2018-08-22T13:36:46.890Z,30.30
2018-08-22T13:39:13.873Z,30.80
2018-08-22T13:41:40.866Z,31.30
2018-08-22T13:44:07.893Z,31.50
2018-08-22T13:49:13.389Z,31.30
2018-08-22T13:51:40.417Z,31.30
2018-08-22T13:54:07.402Z,31.60
2018-08-22T13:56:34.429Z,31.80
2018-08-22T13:59:01.829Z,31.50
2018-08-22T14:01:28.881Z,31.80
2018-08-22T14:03:55.845Z,32.20
2018-08-22T14:06:23.652Z,32.40
2018-08-22T14:08:50.665Z,32.10
2018-08-22T14:11:17.692Z,31.90
2018-08-22T14:13:44.681Z,31.50
2018-08-22T14:16:11.778Z,31.80
2018-08-22T14:18:38.705Z,32.00
2018-08-22T14:21:05.683Z,32.00
2018-08-22T14:23:32.702Z,32.00
2018-08-22T14:25:59.788Z,32.00
2018-08-22T14:28:26.777Z,32.00
2018-08-22T14:30:53.790Z,31.90
2018-08-22T14:33:20.817Z,32.20
2018-08-22T14:35:48.763Z,32.30
2018-08-22T14:38:15.760Z,32.30
2018-08-22T14:40:42.777Z,32.30
2018-08-22T14:43:09.777Z,32.30
2018-08-22T14:45:36.769Z,32.20
2018-08-22T14:48:03.820Z,32.40
2018-08-22T14:50:30.820Z,32.20
2018-08-22T14:52:57.807Z,31.40
2018-08-22T14:55:25.645Z,31.20
2018-08-22T14:57:52.629Z,31.20
2018-08-22T15:00:19.634Z,31.10
2018-08-22T15:02:47.567Z,31.00
2018-08-22T15:07:53.780Z,31.40
2018-08-22T15:10:20.785Z,31.50
2018-08-22T15:12:47.861Z,31.70
2018-08-22T15:15:14.822Z,31.80
2018-08-22T15:17:41.810Z,31.70
2018-08-22T15:20:08.806Z,31.90
2018-08-22T15:22:36.806Z,32.10
2018-08-22T15:25:03.792Z,32.20
2018-08-22T15:27:30.807Z,32.20
2018-08-22T15:29:57.875Z,32.20
2018-08-22T15:32:24.786Z,32.20
2018-08-22T15:34:51.773Z,31.60
2018-08-22T15:37:18.810Z,31.90
2018-08-22T15:39:45.805Z,31.70
2018-08-22T15:42:12.795Z,31.40
2018-08-22T15:44:40.648Z,30.90
2018-08-22T15:47:07.724Z,30.70
2018-08-22T15:49:35.609Z,30.70
2018-08-22T15:52:02.639Z,30.90
2018-08-22T15:54:29.647Z,30.80
2018-08-22T15:56:56.647Z,30.60
2018-08-22T15:59:23.677Z,30.90
2018-08-22T16:04:17.771Z,30.90
2018-08-22T16:11:51.227Z,30.90
2018-08-22T16:14:19.085Z,30.10
2018-08-22T16:16:46.091Z,30.00
2018-08-22T16:19:13.108Z,29.70
2018-08-22T16:21:40.107Z,29.70
2018-08-22T16:24:07.146Z,30.00
2018-08-22T16:26:34.167Z,30.00
2018-08-22T16:29:01.167Z,30.10
2018-08-22T16:31:28.176Z,29.90
2018-08-22T16:33:55.212Z,30.10
2018-08-22T16:36:22.223Z,30.00
2018-08-22T16:38:49.232Z,30.10
2018-08-22T16:41:16.276Z,30.10
2018-08-22T16:43:43.282Z,29.90
2018-08-22T16:46:10.275Z,30.00
2018-08-22T16:48:37.324Z,29.80
2018-08-22T16:51:04.333Z,29.60
2018-08-22T16:53:31.330Z,29.40
2018-08-22T16:55:58.349Z,29.50
2018-08-22T16:58:25.385Z,29.60
2018-08-22T17:00:52.371Z,29.70
2018-08-22T17:03:19.386Z,29.50
2018-08-22T17:05:46.389Z,29.50
2018-08-22T17:08:14.231Z,28.80
2018-08-22T17:13:19.723Z,28.10
2018-08-22T17:15:46.786Z,27.90
2018-08-22T17:20:42.836Z,27.90
2018-08-22T17:23:10.043Z,27.50
2018-08-22T17:25:37.019Z,27.50
2018-08-22T17:28:04.017Z,27.40
2018-08-22T17:30:31.276Z,27.40
2018-08-22T17:35:25.297Z,27.40
2018-08-22T17:37:53.159Z,27.60
2018-08-22T17:40:20.166Z,27.80
2018-08-22T17:42:47.168Z,28.00
2018-08-22T17:45:14.197Z,28.10
2018-08-22T17:47:41.219Z,28.40
2018-08-22T17:50:09.025Z,28.40
2018-08-22T17:52:36.064Z,28.10
2018-08-22T17:55:03.057Z,27.90
2018-08-22T17:57:30.059Z,27.40
2018-08-22T17:59:57.108Z,27.10
2018-08-22T18:02:24.091Z,27.10
2018-08-22T18:04:51.090Z,27.20
2018-08-22T18:07:18.132Z,27.20
2018-08-22T18:09:45.149Z,26.80
2018-08-22T18:12:12.133Z,26.40
2018-08-22T18:14:39.730Z,26.40
2018-08-22T18:17:06.740Z,26.20
2018-08-22T18:19:33.745Z,26.30
2018-08-22T18:22:00.776Z,26.40
2018-08-22T18:27:06.311Z,26.40
2018-08-22T18:29:33.305Z,26.50
2018-08-22T18:32:00.299Z,26.50
2018-08-22T18:34:28.284Z,26.40
2018-08-22T18:36:55.294Z,26.20
2018-08-22T18:39:23.232Z,26.10
2018-08-22T18:41:49.697Z,25.90
2018-08-22T18:44:17.301Z,25.70
2018-08-22T18:46:44.369Z,25.50
2018-08-22T18:49:11.426Z,25.40
2018-08-22T18:51:38.489Z,25.00
2018-08-22T18:54:05.509Z,25.20
2018-08-22T18:56:32.539Z,25.40
2018-08-22T18:58:59.531Z,25.40
2018-08-22T19:01:26.533Z,25.40
2018-08-22T19:03:53.719Z,25.10
2018-08-22T19:06:20.724Z,25.20
2018-08-22T19:08:47.731Z,24.90
2018-08-22T19:11:14.796Z,24.60
2018-08-22T19:13:41.790Z,24.50
2018-08-22T19:16:08.781Z,24.50
2018-08-22T19:18:35.808Z,24.30
2018-08-22T19:21:02.876Z,24.30
2018-08-22T19:23:29.807Z,24.40
2018-08-22T19:25:56.833Z,23.90
2018-08-22T19:28:23.849Z,24.00
2018-08-22T19:33:18.143Z,24.20
2018-08-22T19:43:19.056Z,24.60
2018-08-22T19:48:26.048Z,24.70
2018-08-22T19:50:53.084Z,24.00
2018-08-22T19:53:20.090Z,23.80
2018-08-22T19:55:47.088Z,23.80
2018-08-22T19:58:14.105Z,23.80
2018-08-22T20:06:06.097Z,23.60
2018-08-22T20:08:39.121Z,23.70
2018-08-22T20:11:06.143Z,23.20
2018-08-22T20:13:33.731Z,23.00
2018-08-22T20:16:01.754Z,21.90
2018-08-22T20:18:32.083Z,22.00
2018-08-22T20:23:58.831Z,22.00
2018-08-22T20:26:25.902Z,21.90
2018-08-22T20:29:00.582Z,22.20
2018-08-22T20:31:29.216Z,21.90
2018-08-22T20:33:56.247Z,22.30
2018-08-22T20:36:23.324Z,22.20
2018-08-22T20:38:58.712Z,22.40
2018-08-22T20:41:27.466Z,22.60
2018-08-22T20:43:54.455Z,22.20
2018-08-22T20:46:21.541Z,21.90
2018-08-22T20:48:48.575Z,22.10
2018-08-22T20:51:15.906Z,21.80
2018-08-22T20:53:42.967Z,22.00
2018-08-22T20:58:58.923Z,22.20
2018-08-22T21:01:27.718Z,22.20
2018-08-22T21:03:55.419Z,22.10
2018-08-22T21:06:24.307Z,21.70
2018-08-22T21:08:59.888Z,21.80
2018-08-22T21:11:26.969Z,21.60
2018-08-22T21:13:54.043Z,21.70
2018-08-22T21:18:48.172Z,21.40
2018-08-22T21:21:16.141Z,21.30
2018-08-22T21:23:43.155Z,21.40
2018-08-22T21:26:10.231Z,21.40
2018-08-22T21:28:37.357Z,21.30
2018-08-22T21:31:04.369Z,21.30
2018-08-22T21:33:31.388Z,21.20
2018-08-22T21:35:58.438Z,21.20
2018-08-22T21:38:25.388Z,21.10
2018-08-22T21:40:52.431Z,21.20
2018-08-22T21:43:19.450Z,21.20
2018-08-22T21:45:46.510Z,21.20
2018-08-22T21:48:13.571Z,21.00
2018-08-22T21:50:41.565Z,21.20
2018-08-22T21:53:08.614Z,21.10
2018-08-22T21:55:35.662Z,20.90
2018-08-22T21:58:02.698Z,20.80
2018-08-22T22:00:29.711Z,20.70
2018-08-22T22:02:56.746Z,20.50
2018-08-22T22:08:03.026Z,20.50
2018-08-22T22:10:30.140Z,20.60
2018-08-22T22:12:59.880Z,20.80
2018-08-22T22:15:26.926Z,20.70
2018-08-22T22:17:53.959Z,20.80
2018-08-22T22:20:20.973Z,20.70
2018-08-22T22:22:48.018Z,20.60
2018-08-22T22:25:15.064Z,20.60
2018-08-22T22:27:42.090Z,20.70
2018-08-22T22:30:10.185Z,20.70
2018-08-22T22:32:37.224Z,20.70
2018-08-22T22:35:04.244Z,20.80
2018-08-22T22:37:31.928Z,20.80
2018-08-22T22:39:59.015Z,20.80
2018-08-22T22:42:26.116Z,20.70
2018-08-22T22:44:53.831Z,20.80
2018-08-22T22:47:20.697Z,20.90
2018-08-22T22:49:48.127Z,20.80
2018-08-22T22:54:48.100Z,20.90
2018-08-22T22:57:15.159Z,21.00
2018-08-22T22:59:43.635Z,20.80
2018-08-22T23:02:10.662Z,20.80
2018-08-22T23:04:37.681Z,20.80
2018-08-22T23:09:45.553Z,20.60
2018-08-22T23:12:13.467Z,20.70
2018-08-22T23:14:40.494Z,20.80
2018-08-22T23:19:36.022Z,21.00
2018-08-22T23:22:03.045Z,20.80
2018-08-22T23:24:30.078Z,20.80
2018-08-22T23:26:57.154Z,20.80
2018-08-22T23:29:24.945Z,20.70
2018-08-22T23:31:51.965Z,20.50
2018-08-22T23:34:19.038Z,20.60
2018-08-22T23:36:46.171Z,20.70
2018-08-22T23:39:13.221Z,20.60
2018-08-22T23:44:08.393Z,20.60
2018-08-22T23:46:35.411Z,20.70
2018-08-22T23:49:02.475Z,20.70
2018-08-22T23:51:29.478Z,20.70
2018-08-22T23:53:57.368Z,20.50
2018-08-22T23:56:24.437Z,20.50
2018-08-22T23:58:51.479Z,20.60
